sim
Sign-in with your pilot id or email,
or register
Callsign
Passwort

Schedule Details

Flight Number: EWG84
Departure: Cologne Bonn Airport (EDDK) at 14:15
Arrival: Munich Airport (EDDM) at 15:25
Route: Eurowings Passenger Schedule. Enter filed route here before submitting Pirep.

Weather Information
Getting current METAR information for EDDK 260150Z 20010KT 9999 -RA BKN022 09/08 Q0995 NOSIG
Getting current METAR information for EDDM 260150Z 26011KT 9999 -RA SCT014 BKN024 08/06 Q1000 NOSIG

Schedule Frequency

Route Map